sensor_id;sensor_type;location;lat;lon;timestamp;pressure;altitude;pressure_sealevel;temperature;humidity
10093;BME280;5085;48.092;11.484;2023-03-18T00:00:20;94720.50;;;4.13;100.00
10093;BME280;5085;48.092;11.484;2023-03-18T00:02:47;94718.63;;;4.14;100.00
10093;BME280;5085;48.092;11.484;2023-03-18T00:05:14;94721.84;;;4.16;100.00
10093;BME280;5085;48.092;11.484;2023-03-18T00:07:40;94722.09;;;4.14;100.00
10093;BME280;5085;48.092;11.484;2023-03-18T00:10:08;94728.22;;;4.15;100.00
10093;BME280;5085;48.092;11.484;2023-03-18T00:12:35;94726.63;;;4.14;100.00
10093;BME280;5085;48.092;11.484;2023-03-18T00:15:08;94729.84;;;4.16;100.00
10093;BME280;5085;48.092;11.484;2023-03-18T00:17:34;94728.22;;;4.15;100.00
10093;BME280;5085;48.092;11.484;2023-03-18T00:20:04;94731.94;;;4.14;100.00
10093;BME280;5085;48.092;11.484;2023-03-18T00:22:32;94735.91;;;4.11;100.00
10093;BME280;5085;48.092;11.484;2023-03-18T00:24:59;94730.03;;;4.09;100.00
10093;BME280;5085;48.092;11.484;2023-03-18T00:27:25;94736.63;;;4.07;100.00
10093;BME280;5085;48.092;11.484;2023-03-18T00:29:52;94736.41;;;4.08;100.00
10093;BME280;5085;48.092;11.484;2023-03-18T00:32:20;94745.19;;;4.09;100.00
10093;BME280;5085;48.092;11.484;2023-03-18T00:34:47;94738.56;;;4.11;100.00
10093;BME280;5085;48.092;11.484;2023-03-18T00:37:14;94746.34;;;4.13;100.00
10093;BME280;5085;48.092;11.484;2023-03-18T00:39:44;94738.34;;;4.13;100.00
10093;BME280;5085;48.092;11.484;2023-03-18T00:42:12;94740.19;;;4.12;100.00
10093;BME280;5085;48.092;11.484;2023-03-18T00:44:38;94753.28;;;4.14;100.00
10093;BME280;5085;48.092;11.484;2023-03-18T00:47:05;94745.28;;;4.14;100.00
10093;BME280;5085;48.092;11.484;2023-03-18T00:49:33;94750.03;;;4.12;100.00
10093;BME280;5085;48.092;11.484;2023-03-18T00:51:59;94759.06;;;4.11;100.00
10093;BME280;5085;48.092;11.484;2023-03-18T00:54:25;94755.13;;;4.13;100.00
10093;BME280;5085;48.092;11.484;2023-03-18T00:56:51;94751.97;;;4.16;100.00
10093;BME280;5085;48.092;11.484;2023-03-18T00:59:18;94753.00;;;4.15;100.00
10093;BME280;5085;48.092;11.484;2023-03-18T01:01:44;94757.31;;;4.16;100.00
10093;BME280;5085;48.092;11.484;2023-03-18T01:04:11;94753.81;;;4.16;100.00
10093;BME280;5085;48.092;11.484;2023-03-18T01:06:38;94757.31;;;4.16;100.00
10093;BME280;5085;48.092;11.484;2023-03-18T01:09:05;94763.66;;;4.15;100.00
10093;BME280;5085;48.092;11.484;2023-03-18T01:11:32;94749.53;;;4.15;100.00
10093;BME280;5085;48.092;11.484;2023-03-18T01:13:58;94760.78;;;4.17;100.00
10093;BME280;5085;48.092;11.484;2023-03-18T01:16:24;94754.13;;;4.19;100.00
10093;BME280;5085;48.092;11.484;2023-03-18T01:18:50;94752.53;;;4.18;100.00
10093;BME280;5085;48.092;11.484;2023-03-18T01:21:17;94751.72;;;4.18;100.00
10093;BME280;5085;48.092;11.484;2023-03-18T01:23:50;94762.38;;;4.18;100.00
10093;BME280;5085;48.092;11.484;2023-03-18T01:26:16;94750.69;;;4.19;100.00
10093;BME280;5085;48.092;11.484;2023-03-18T01:28:43;94747.22;;;4.18;100.00
10093;BME280;5085;48.092;11.484;2023-03-18T01:31:10;94754.94;;;4.20;100.00
10093;BME280;5085;48.092;11.484;2023-03-18T01:33:38;94757.94;;;4.23;100.00
10093;BME280;5085;48.092;11.484;2023-03-18T01:36:05;94751.53;;;4.24;100.00
10093;BME280;5085;48.092;11.484;2023-03-18T01:38:32;94756.06;;;4.24;100.00
10093;BME280;5085;48.092;11.484;2023-03-18T01:41:08;94759.78;;;4.23;100.00
10093;BME280;5085;48.092;11.484;2023-03-18T01:43:38;94757.38;;;4.21;100.00
10093;BME280;5085;48.092;11.484;2023-03-18T01:49:19;94758.66;;;4.19;100.00
10093;BME280;5085;48.092;11.484;2023-03-18T01:51:53;94759.25;;;4.21;100.00
10093;BME280;5085;48.092;11.484;2023-03-18T01:54:22;94760.84;;;4.22;100.00
10093;BME280;5085;48.092;11.484;2023-03-18T01:56:49;94765.94;;;4.23;100.00
10093;BME280;5085;48.092;11.484;2023-03-18T01:59:18;94760.13;;;4.26;100.00
10093;BME280;5085;48.092;11.484;2023-03-18T02:01:53;94765.25;;;4.33;100.00
10093;BME280;5085;48.092;11.484;2023-03-18T02:04:25;94763.97;;;4.36;100.00
10093;BME280;5085;48.092;11.484;2023-03-18T02:06:53;94758.38;;;4.37;100.00
10093;BME280;5085;48.092;11.484;2023-03-18T02:09:19;94764.31;;;4.39;100.00
10093;BME280;5085;48.092;11.484;2023-03-18T02:11:46;94772.28;;;4.39;100.00
10093;BME280;5085;48.092;11.484;2023-03-18T02:14:18;94766.97;;;4.39;100.00
10093;BME280;5085;48.092;11.484;2023-03-18T02:17:05;94774.16;;;4.39;100.00
10093;BME280;5085;48.092;11.484;2023-03-18T02:22:49;94773.84;;;4.35;100.00
10093;BME280;5085;48.092;11.484;2023-03-18T02:28:11;94784.50;;;4.35;100.00
10093;BME280;5085;48.092;11.484;2023-03-18T02:30:43;94776.75;;;4.34;100.00
10093;BME280;5085;48.092;11.484;2023-03-18T02:33:13;94782.09;;;4.34;100.00
10093;BME280;5085;48.092;11.484;2023-03-18T02:35:51;94782.31;;;4.32;100.00
10093;BME280;5085;48.092;11.484;2023-03-18T02:38:17;94790.31;;;4.32;100.00
10093;BME280;5085;48.092;11.484;2023-03-18T02:40:44;94784.97;;;4.32;100.00
10093;BME280;5085;48.092;11.484;2023-03-18T02:43:25;94790.31;;;4.32;100.00
10093;BME280;5085;48.092;11.484;2023-03-18T02:46:20;94779.09;;;4.30;100.00
10093;BME280;5085;48.092;11.484;2023-03-18T02:48:48;94788.16;;;4.29;100.00
10093;BME280;5085;48.092;11.484;2023-03-18T02:51:15;94783.03;;;4.28;100.00
10093;BME280;5085;48.092;11.484;2023-03-18T02:53:42;94792.09;;;4.26;100.00
10093;BME280;5085;48.092;11.484;2023-03-18T02:56:09;94791.03;;;4.28;100.00
10093;BME280;5085;48.092;11.484;2023-03-18T02:58:38;94795.31;;;4.29;100.00
10093;BME280;5085;48.092;11.484;2023-03-18T03:01:05;94792.66;;;4.29;100.00
10093;BME280;5085;48.092;11.484;2023-03-18T03:03:33;94800.41;;;4.30;100.00
10093;BME280;5085;48.092;11.484;2023-03-18T03:06:02;94798.56;;;4.31;100.00
10093;BME280;5085;48.092;11.484;2023-03-18T03:08:29;94804.94;;;4.30;100.00
10093;BME280;5085;48.092;11.484;2023-03-18T03:10:59;94803.63;;;4.32;100.00
10093;BME280;5085;48.092;11.484;2023-03-18T03:13:28;94810.56;;;4.33;100.00
10093;BME280;5085;48.092;11.484;2023-03-18T03:15:57;94821.00;;;4.35;100.00
10093;BME280;5085;48.092;11.484;2023-03-18T03:18:23;94818.56;;;4.33;100.00
10093;BME280;5085;48.092;11.484;2023-03-18T03:20:50;94819.63;;;4.32;100.00
10093;BME280;5085;48.092;11.484;2023-03-18T03:23:18;94818.81;;;4.32;100.00
10093;BME280;5085;48.092;11.484;2023-03-18T03:25:47;94830.53;;;4.31;100.00
10093;BME280;5085;48.092;11.484;2023-03-18T03:28:14;94825.22;;;4.31;100.00
10093;BME280;5085;48.092;11.484;2023-03-18T03:30:41;94827.63;;;4.32;100.00
10093;BME280;5085;48.092;11.484;2023-03-18T03:33:08;94822.53;;;4.31;100.00
10093;BME280;5085;48.092;11.484;2023-03-18T03:35:35;94830.53;;;4.31;100.00
10093;BME280;5085;48.092;11.484;2023-03-18T03:38:01;94829.72;;;4.30;100.00
10093;BME280;5085;48.092;11.484;2023-03-18T03:40:29;94834.25;;;4.30;100.00
10093;BME280;5085;48.092;11.484;2023-03-18T03:42:55;94831.00;;;4.28;100.00
10093;BME280;5085;48.092;11.484;2023-03-18T03:45:21;94835.28;;;4.29;100.00
10093;BME280;5085;48.092;11.484;2023-03-18T03:47:48;94827.06;;;4.30;100.00
10093;BME280;5085;48.092;11.484;2023-03-18T03:50:15;94829.47;;;4.32;100.00
10093;BME280;5085;48.092;11.484;2023-03-18T03:52:43;94832.94;;;4.32;100.00
10093;BME280;5085;48.092;11.484;2023-03-18T03:55:12;94844.41;;;4.33;100.00
10093;BME280;5085;48.092;11.484;2023-03-18T03:57:38;94834.81;;;4.32;100.00
10093;BME280;5085;48.092;11.484;2023-03-18T04:00:07;94836.41;;;4.33;100.00
10093;BME280;5085;48.092;11.484;2023-03-18T04:02:43;94842.00;;;4.31;100.00
10093;BME280;5085;48.092;11.484;2023-03-18T04:05:13;94850.56;;;4.33;100.00
10093;BME280;5085;48.092;11.484;2023-03-18T04:07:40;94848.13;;;4.32;100.00
10093;BME280;5085;48.092;11.484;2023-03-18T04:10:08;94851.84;;;4.31;100.00
10093;BME280;5085;48.092;11.484;2023-03-18T04:12:35;94851.28;;;4.29;100.00
10093;BME280;5085;48.092;11.484;2023-03-18T04:15:01;94852.34;;;4.28;100.00
10093;BME280;5085;48.092;11.484;2023-03-18T04:17:27;94850.72;;;4.26;100.00
10093;BME280;5085;48.092;11.484;2023-03-18T04:19:53;94849.34;;;4.24;100.00
10093;BME280;5085;48.092;11.484;2023-03-18T04:22:19;94852.00;;;4.24;100.00
10093;BME280;5085;48.092;11.484;2023-03-18T04:24:45;94847.97;;;4.21;100.00
10093;BME280;5085;48.092;11.484;2023-03-18T04:27:11;94849.84;;;4.21;100.00
10093;BME280;5085;48.092;11.484;2023-03-18T04:29:37;94845.78;;;4.18;100.00
10093;BME280;5085;48.092;11.484;2023-03-18T04:32:04;94857.50;;;4.17;100.00
10093;BME280;5085;48.092;11.484;2023-03-18T04:34:30;94852.41;;;4.16;100.00
10093;BME280;5085;48.092;11.484;2023-03-18T04:36:57;94855.31;;;4.14;100.00
10093;BME280;5085;48.092;11.484;2023-03-18T04:39:24;94852.91;;;4.13;100.00
10093;BME280;5085;48.092;11.484;2023-03-18T04:41:50;94861.91;;;4.12;100.00
10093;BME280;5085;48.092;11.484;2023-03-18T04:44:16;94857.66;;;4.11;100.00
10093;BME280;5085;48.092;11.484;2023-03-18T04:46:51;94860.31;;;4.11;100.00
10093;BME280;5085;48.092;11.484;2023-03-18T04:49:48;94861.63;;;4.08;100.00
10093;BME280;5085;48.092;11.484;2023-03-18T04:52:14;94862.66;;;4.07;100.00
10093;BME280;5085;48.092;11.484;2023-03-18T04:54:41;94859.19;;;4.07;100.00
10093;BME280;5085;48.092;11.484;2023-03-18T04:57:08;94861.28;;;4.05;100.00
10093;BME280;5085;48.092;11.484;2023-03-18T04:59:40;94855.72;;;4.06;100.00
10093;BME280;5085;48.092;11.484;2023-03-18T05:02:07;94845.31;;;4.05;100.00
10093;BME280;5085;48.092;11.484;2023-03-18T05:04:35;94849.84;;;4.04;100.00
10093;BME280;5085;48.092;11.484;2023-03-18T05:07:01;94856.75;;;4.05;100.00
10093;BME280;5085;48.092;11.484;2023-03-18T05:09:32;94853.78;;;4.01;100.00
10093;BME280;5085;48.092;11.484;2023-03-18T05:11:59;94856.44;;;4.01;100.00
10093;BME280;5085;48.092;11.484;2023-03-18T05:14:34;94862.34;;;4.04;100.00
10093;BME280;5085;48.092;11.484;2023-03-18T05:17:01;94852.72;;;4.03;100.00
10093;BME280;5085;48.092;11.484;2023-03-18T05:19:32;94852.72;;;4.03;100.00
10093;BME280;5085;48.092;11.484;2023-03-18T05:22:06;94866.03;;;4.03;100.00
10093;BME280;5085;48.092;11.484;2023-03-18T05:24:33;94867.69;;;4.04;100.00
10093;BME280;5085;48.092;11.484;2023-03-18T05:26:59;94866.03;;;4.03;100.00
10093;BME280;5085;48.092;11.484;2023-03-18T05:29:36;94860.72;;;4.03;100.00
10093;BME280;5085;48.092;11.484;2023-03-18T05:32:10;94865.22;;;4.02;100.00
10093;BME280;5085;48.092;11.484;2023-03-18T05:34:38;94861.50;;;4.03;100.00
10093;BME280;5085;48.092;11.484;2023-03-18T05:37:07;94866.84;;;4.03;100.00
10093;BME280;5085;48.092;11.484;2023-03-18T05:39:37;94869.03;;;4.06;100.00
10093;BME280;5085;48.092;11.484;2023-03-18T05:42:07;94868.56;;;4.09;100.00
10093;BME280;5085;48.092;11.484;2023-03-18T05:44:34;94867.50;;;4.10;100.00
10093;BME280;5085;48.092;11.484;2023-03-18T05:47:01;94863.56;;;4.13;100.00
10093;BME280;5085;48.092;11.484;2023-03-18T05:49:39;94863.31;;;4.14;100.00
10093;BME280;5085;48.092;11.484;2023-03-18T05:52:16;94875.91;;;4.19;100.00
10093;BME280;5085;48.092;11.484;2023-03-18T05:54:44;94871.25;;;4.26;100.00
10093;BME280;5085;48.092;11.484;2023-03-18T05:57:14;94884.66;;;4.31;100.00
10093;BME280;5085;48.092;11.484;2023-03-18T05:59:41;94883.44;;;4.39;100.00
10093;BME280;5085;48.092;11.484;2023-03-18T06:02:08;94885.94;;;4.45;100.00
10093;BME280;5085;48.092;11.484;2023-03-18T06:04:35;94878.59;;;4.53;100.00
10093;BME280;5085;48.092;11.484;2023-03-18T06:07:03;94884.56;;;4.60;100.00
10093;BME280;5085;48.092;11.484;2023-03-18T06:09:37;94874.78;;;4.65;100.00
10093;BME280;5085;48.092;11.484;2023-03-18T06:12:03;94884.00;;;4.74;100.00
10093;BME280;5085;48.092;11.484;2023-03-18T06:14:30;94882.22;;;4.80;100.00
10093;BME280;5085;48.092;11.484;2023-03-18T06:16:59;94878.56;;;4.86;100.00
10093;BME280;5085;48.092;11.484;2023-03-18T06:19:25;94880.00;;;4.94;100.00
10093;BME280;5085;48.092;11.484;2023-03-18T06:21:53;94883.28;;;5.01;100.00
10093;BME280;5085;48.092;11.484;2023-03-18T06:24:22;94882.06;;;5.09;100.00
10093;BME280;5085;48.092;11.484;2023-03-18T06:26:48;94883.03;;;5.19;100.00
10093;BME280;5085;48.092;11.484;2023-03-18T06:29:15;94886.63;;;5.30;100.00
10093;BME280;5085;48.092;11.484;2023-03-18T06:31:41;94886.25;;;5.43;100.00
10093;BME280;5085;48.092;11.484;2023-03-18T06:34:09;94875.44;;;5.55;100.00
10093;BME280;5085;48.092;11.484;2023-03-18T06:36:37;94886.56;;;5.69;100.00
10093;BME280;5085;48.092;11.484;2023-03-18T06:39:08;94887.53;;;5.85;100.00
10093;BME280;5085;48.092;11.484;2023-03-18T06:41:36;94886.69;;;6.01;100.00
10093;BME280;5085;48.092;11.484;2023-03-18T06:44:26;94895.97;;;6.20;100.00
10093;BME280;5085;48.092;11.484;2023-03-18T06:46:57;94895.03;;;6.37;100.00
10093;BME280;5085;48.092;11.484;2023-03-18T06:49:23;94879.66;;;6.54;100.00
10093;BME280;5085;48.092;11.484;2023-03-18T06:51:56;94890.22;;;6.71;100.00
10093;BME280;5085;48.092;11.484;2023-03-18T06:54:22;94881.25;;;6.87;100.00
10093;BME280;5085;48.092;11.484;2023-03-18T06:56:48;94894.25;;;7.06;100.00
10093;BME280;5085;48.092;11.484;2023-03-18T06:59:17;94895.91;;;7.22;100.00
10093;BME280;5085;48.092;11.484;2023-03-18T07:01:44;94892.03;;;7.40;100.00
10093;BME280;5085;48.092;11.484;2023-03-18T07:04:11;94897.19;;;7.57;100.00
10093;BME280;5085;48.092;11.484;2023-03-18T07:06:38;94905.28;;;7.72;100.00
10093;BME280;5085;48.092;11.484;2023-03-18T07:09:04;94901.31;;;7.90;100.00
10093;BME280;5085;48.092;11.484;2023-03-18T07:11:30;94896.56;;;8.07;100.00
10093;BME280;5085;48.092;11.484;2023-03-18T07:13:57;94893.91;;;8.27;100.00
10093;BME280;5085;48.092;11.484;2023-03-18T07:16:27;94892.38;;;8.47;100.00
10093;BME280;5085;48.092;11.484;2023-03-18T07:18:56;94894.53;;;8.65;100.00
10093;BME280;5085;48.092;11.484;2023-03-18T07:21:24;94901.50;;;8.92;100.00
10093;BME280;5085;48.092;11.484;2023-03-18T07:23:50;94899.06;;;9.16;100.00
10093;BME280;5085;48.092;11.484;2023-03-18T07:26:17;94903.84;;;9.34;100.00
10093;BME280;5085;48.092;11.484;2023-03-18T07:28:43;94911.34;;;9.52;98.94
10093;BME280;5085;48.092;11.484;2023-03-18T07:31:10;94904.03;;;9.68;97.94
10093;BME280;5085;48.092;11.484;2023-03-18T07:33:36;94905.84;;;9.83;96.14
10093;BME280;5085;48.092;11.484;2023-03-18T07:36:02;94910.09;;;9.99;95.37
10093;BME280;5085;48.092;11.484;2023-03-18T07:38:28;94908.16;;;10.15;93.65
10093;BME280;5085;48.092;11.484;2023-03-18T07:40:55;94908.88;;;10.31;92.68
10093;BME280;5085;48.092;11.484;2023-03-18T07:43:21;94909.34;;;10.43;90.59
10093;BME280;5085;48.092;11.484;2023-03-18T07:45:47;94917.34;;;10.59;89.58
10093;BME280;5085;48.092;11.484;2023-03-18T07:48:13;94917.22;;;10.74;88.25
10093;BME280;5085;48.092;11.484;2023-03-18T07:50:39;94916.00;;;10.90;87.71
10093;BME280;5085;48.092;11.484;2023-03-18T07:53:06;94912.66;;;11.09;86.85
10093;BME280;5085;48.092;11.484;2023-03-18T07:55:32;94917.84;;;11.29;86.54
10093;BME280;5085;48.092;11.484;2023-03-18T07:58:01;94916.28;;;11.52;85.67
10093;BME280;5085;48.092;11.484;2023-03-18T08:00:27;94920.84;;;11.75;83.24
10093;BME280;5085;48.092;11.484;2023-03-18T08:02:54;94919.56;;;11.97;80.34
10093;BME280;5085;48.092;11.484;2023-03-18T08:05:20;94918.22;;;12.18;78.12
10093;BME280;5085;48.092;11.484;2023-03-18T08:07:46;94917.16;;;12.38;76.97
10093;BME280;5085;48.092;11.484;2023-03-18T08:10:13;94921.47;;;12.58;75.37
10093;BME280;5085;48.092;11.484;2023-03-18T08:12:41;94910.66;;;12.77;73.20
10093;BME280;5085;48.092;11.484;2023-03-18T08:15:07;94915.84;;;12.92;71.73
10093;BME280;5085;48.092;11.484;2023-03-18T08:17:34;94923.19;;;13.06;68.24
10093;BME280;5085;48.092;11.484;2023-03-18T08:20:00;94918.34;;;13.21;67.68
10093;BME280;5085;48.092;11.484;2023-03-18T08:22:26;94931.25;;;13.43;66.83
10093;BME280;5085;48.092;11.484;2023-03-18T08:25:02;94926.88;;;13.75;66.92
10093;BME280;5085;48.092;11.484;2023-03-18T08:27:31;94924.66;;;14.05;64.49
10093;BME280;5085;48.092;11.484;2023-03-18T08:29:57;94920.75;;;14.24;62.77
10093;BME280;5085;48.092;11.484;2023-03-18T08:32:23;94923.13;;;14.40;61.89
10093;BME280;5085;48.092;11.484;2023-03-18T08:34:50;94925.94;;;14.62;60.21
10093;BME280;5085;48.092;11.484;2023-03-18T08:37:17;94928.38;;;14.86;58.04
10093;BME280;5085;48.092;11.484;2023-03-18T08:39:44;94924.63;;;15.18;57.52
10093;BME280;5085;48.092;11.484;2023-03-18T08:42:10;94919.00;;;15.60;58.23
10093;BME280;5085;48.092;11.484;2023-03-18T08:44:39;94925.06;;;15.96;56.48
10093;BME280;5085;48.092;11.484;2023-03-18T08:47:06;94922.81;;;16.30;54.99
10093;BME280;5085;48.092;11.484;2023-03-18T08:49:32;94926.53;;;16.51;53.34
10093;BME280;5085;48.092;11.484;2023-03-18T08:51:59;94932.16;;;16.72;51.09
10093;BME280;5085;48.092;11.484;2023-03-18T08:54:25;94922.91;;;16.99;50.61
10093;BME280;5085;48.092;11.484;2023-03-18T08:56:52;94923.56;;;17.31;50.21
10093;BME280;5085;48.092;11.484;2023-03-18T08:59:20;94920.28;;;17.63;49.29
10093;BME280;5085;48.092;11.484;2023-03-18T09:01:46;94916.38;;;17.90;47.62
10093;BME280;5085;48.092;11.484;2023-03-18T09:04:13;94914.00;;;18.27;46.57
10093;BME280;5085;48.092;11.484;2023-03-18T09:06:40;94919.59;;;18.52;45.52
10093;BME280;5085;48.092;11.484;2023-03-18T09:09:06;94925.28;;;18.67;45.54
10093;BME280;5085;48.092;11.484;2023-03-18T09:11:33;94911.25;;;18.86;44.85
10093;BME280;5085;48.092;11.484;2023-03-18T09:13:59;94908.75;;;19.14;43.69
10093;BME280;5085;48.092;11.484;2023-03-18T09:16:25;94913.31;;;19.43;42.87
10093;BME280;5085;48.092;11.484;2023-03-18T09:18:51;94909.94;;;19.80;41.83
10093;BME280;5085;48.092;11.484;2023-03-18T09:21:17;94912.81;;;20.08;41.67
10093;BME280;5085;48.092;11.484;2023-03-18T09:23:43;94906.31;;;20.12;40.12
10093;BME280;5085;48.092;11.484;2023-03-18T09:26:10;94911.91;;;20.28;39.93
10093;BME280;5085;48.092;11.484;2023-03-18T09:28:36;94914.19;;;20.38;39.64
10093;BME280;5085;48.092;11.484;2023-03-18T09:31:03;94908.41;;;20.52;39.54
10093;BME280;5085;48.092;11.484;2023-03-18T09:33:30;94916.81;;;20.71;39.96
10093;BME280;5085;48.092;11.484;2023-03-18T09:35:57;94915.34;;;20.62;38.71
10093;BME280;5085;48.092;11.484;2023-03-18T09:38:23;94909.63;;;20.42;39.49
10093;BME280;5085;48.092;11.484;2023-03-18T09:41:00;94911.78;;;20.25;40.24
10093;BME280;5085;48.092;11.484;2023-03-18T09:46:31;94907.38;;;20.57;39.31
10093;BME280;5085;48.092;11.484;2023-03-18T09:49:15;94904.53;;;21.06;38.69
10093;BME280;5085;48.092;11.484;2023-03-18T09:52:02;94900.22;;;21.61;38.09
10093;BME280;5085;48.092;11.484;2023-03-18T09:57:05;94908.00;;;23.01;35.93
10093;BME280;5085;48.092;11.484;2023-03-18T09:59:41;94907.38;;;23.66;35.29
10093;BME280;5085;48.092;11.484;2023-03-18T10:02:19;94912.41;;;24.49;32.80
10093;BME280;5085;48.092;11.484;2023-03-18T10:05:31;94912.00;;;25.60;30.82
10093;BME280;5085;48.092;11.484;2023-03-18T10:08:02;94913.47;;;26.25;29.70
10093;BME280;5085;48.092;11.484;2023-03-18T10:10:36;94916.09;;;26.48;29.79
10093;BME280;5085;48.092;11.484;2023-03-18T10:13:13;94918.00;;;26.43;29.10
10093;BME280;5085;48.092;11.484;2023-03-18T10:15:46;94915.09;;;26.26;29.14
10093;BME280;5085;48.092;11.484;2023-03-18T10:18:26;94913.16;;;26.30;29.43
10093;BME280;5085;48.092;11.484;2023-03-18T10:23:57;94909.44;;;26.52;28.77
10093;BME280;5085;48.092;11.484;2023-03-18T10:26:30;94907.81;;;26.48;28.20
10093;BME280;5085;48.092;11.484;2023-03-18T10:29:28;94902.88;;;26.27;29.33
10093;BME280;5085;48.092;11.484;2023-03-18T10:32:34;94904.00;;;25.81;28.84
10093;BME280;5085;48.092;11.484;2023-03-18T10:38:35;94901.19;;;26.15;27.50
10093;BME280;5085;48.092;11.484;2023-03-18T10:41:13;94900.28;;;26.45;27.79
10093;BME280;5085;48.092;11.484;2023-03-18T10:43:39;94900.88;;;26.72;28.19
10093;BME280;5085;48.092;11.484;2023-03-18T10:46:10;94896.06;;;27.16;27.31
10093;BME280;5085;48.092;11.484;2023-03-18T10:48:45;94893.75;;;27.29;25.97
10093;BME280;5085;48.092;11.484;2023-03-18T10:53:52;94882.94;;;28.11;26.29
10093;BME280;5085;48.092;11.484;2023-03-18T10:56:21;94889.75;;;28.64;25.97
10093;BME280;5085;48.092;11.484;2023-03-18T10:58:48;94870.72;;;28.77;24.29
10093;BME280;5085;48.092;11.484;2023-03-18T11:01:17;94876.63;;;28.97;25.12
10093;BME280;5085;48.092;11.484;2023-03-18T11:03:49;94873.38;;;29.27;24.12
10093;BME280;5085;48.092;11.484;2023-03-18T13:25:33;94766.06;;;35.28;18.20
10093;BME280;5085;48.092;11.484;2023-03-18T13:28:37;94762.91;;;35.94;17.43
10093;BME280;5085;48.092;11.484;2023-03-18T13:36:42;94747.78;;;35.53;17.20
10093;BME280;5085;48.092;11.484;2023-03-18T13:39:41;94737.38;;;34.95;17.07
10093;BME280;5085;48.092;11.484;2023-03-18T13:42:18;94741.78;;;34.67;17.91
10093;BME280;5085;48.092;11.484;2023-03-18T13:44:58;94732.69;;;34.92;18.14
10093;BME280;5085;48.092;11.484;2023-03-18T13:47:29;94732.22;;;34.65;17.68
10093;BME280;5085;48.092;11.484;2023-03-18T13:52:47;94716.72;;;34.31;18.57
10093;BME280;5085;48.092;11.484;2023-03-18T13:55:32;94722.22;;;34.18;19.33
10093;BME280;5085;48.092;11.484;2023-03-18T14:00:39;94715.38;;;33.34;19.61
10093;BME280;5085;48.092;11.484;2023-03-18T14:13:38;94697.69;;;31.44;20.33
10093;BME280;5085;48.092;11.484;2023-03-18T14:16:09;94701.91;;;31.52;20.89
10093;BME280;5085;48.092;11.484;2023-03-18T14:18:36;94693.22;;;31.19;20.63
10093;BME280;5085;48.092;11.484;2023-03-18T14:21:04;94690.28;;;30.99;21.44
10093;BME280;5085;48.092;11.484;2023-03-18T14:23:38;94684.66;;;30.76;21.42
10093;BME280;5085;48.092;11.484;2023-03-18T14:26:23;94683.44;;;30.39;21.98
10093;BME280;5085;48.092;11.484;2023-03-18T14:39:30;94675.28;;;27.36;24.90
10093;BME280;5085;48.092;11.484;2023-03-18T14:42:00;94677.16;;;26.13;26.50
